Blackbird — WDJ4307 — position and weather

sailwx.info

Track history (hours):
 
Tides and Currents Weather Stations Pressure Air Temp Water Temp Dewpoint Dewpoint Depression Visibility Wind Speed Wind Dir Waves Ship Positions

Blackbird

Owner: PropSF, LLC, Alameda, CA. More information available from US FCC via Universal Licensing System and Coast Guard Vessel Documentation Center.

Last reported at 2018-Sep-22 02:25 UTC. Time now 2018-Sep-23 04:22 UTC.
Position N 37°50' W 122°19'.

Length 17 m; draft 1 m.

Type: Passenger vessel. MMSI: 367776390.

Date/timePositionNaut miles runAvg speedWind from/ knotsBaromVisibWave heightAir tempDewpointWater temp
2018-Sep-22 02:25N 37°50' W 122°19'3 8.7
2018-Sep-22 02:04N 37°52' W 122°23'126.4
2018-Sep-22 02:01N 37°53' W 122°23'1020.8
2018-Sep-22 01:30N 38°03' W 122°20'816.3
2018-Sep-22 01:01N 38°03' W 122°09'0 0.0
2018-Sep-22 00:58N 38°03' W 122°09'818.4
2018-Sep-22 00:30N 38°02' W 122°20'1021.2
2018-Sep-22 00:04N 37°55' W 122°28'127.1
2018-Sep-22 00:00N 37°54' W 122°27'510.5
2018-Sep-21 23:31N 37°51' W 122°22'1124.3
2018-Sep-21 23:03N 37°40' W 122°22'0 3.9
2018-Sep-21 23:00N 37°40' W 122°23'714.8
2018-Sep-21 22:30N 37°47' W 122°21'510.3
2018-Sep-21 22:04N 37°52' W 122°20'127.7
2018-Sep-21 22:00N 37°51' W 122°21'1120.0
2018-Sep-21 21:27N 37°40' W 122°23'0 0.2
2018-Sep-21 21:02N 37°40' W 122°23'0 3.1
2018-Sep-21 21:00N 37°40' W 122°23'1122.3
2018-Sep-21 20:30N 37°51' W 122°19'0 0.6
2018-Sep-21 20:03N 37°50' W 122°19'0 0.0
2018-Sep-21 20:00N 37°50' W 122°19'0 0.0
2018-Sep-21 17:17N 37°50' W 122°19'0 0.0
2018-Sep-21 17:03N 37°50' W 122°19'0 0.0
2018-Sep-21 17:01N 37°50' W 122°19'0 0.0
2018-Sep-21 16:31N 37°50' W 122°19'0 0.1
2018-Sep-21 16:04N 37°50' W 122°19'0 3.1
2018-Sep-21 16:01N 37°50' W 122°19'1121.5
2018-Sep-21 15:30N 37°40' W 122°22'716.6
2018-Sep-21 15:04N 37°47' W 122°21'129.7
2018-Sep-21 15:01N 37°49' W 122°21'4 7.8
2018-Sep-21 14:30N 37°52' W 122°19'1110.9
2018-Sep-21 13:30N 37°41' W 122°22'1124.1
2018-Sep-21 13:03N 37°52' W 122°19'0 2.4
2018-Sep-21 13:01N 37°52' W 122°19'3 6.7
2018-Sep-21 12:30N 37°55' W 122°21'0 1.1
2018-Sep-21 12:03N 37°54' W 122°22'117.6
2018-Sep-21 12:00N 37°54' W 122°23'5 9.5
2018-Sep-21 11:29N 37°50' W 122°19'0 0.0
2018-Sep-21 11:03N 37°50' W 122°19'0 0.0
2018-Sep-21 02:11N 37°50' W 122°19'0 0.0
2018-Sep-21 02:03N 37°50' W 122°19'0 0.0
2018-Sep-21 02:00N 37°50' W 122°19'816.9
2018-Sep-21 01:30N 37°57' W 122°26'1124.4
2018-Sep-21 01:03N 38°04' W 122°15'130.4
2018-Sep-21 01:01N 38°04' W 122°13'4 8.4
2018-Sep-21 00:30N 38°03' W 122°19'1124.4
2018-Sep-21 00:03N 37°55' W 122°28'114.1
2018-Sep-21 00:00N 37°55' W 122°28'612.7
2018-Sep-20 23:30N 37°51' W 122°21'1124.8
2018-Sep-20 23:03N 37°40' W 122°22'0 4.4
2018-Sep-20 23:01N 37°40' W 122°23'611.9
2018-Sep-20 22:31N 37°46' W 122°21'614.2
2018-Sep-20 22:04N 37°52' W 122°19'126.7
2018-Sep-20 22:01N 37°51' W 122°21'1221.2
2018-Sep-20 21:28N 37°40' W 122°23'513.3
2018-Sep-20 21:04N 37°45' W 122°21'128.7
2018-Sep-20 21:01N 37°46' W 122°21'4 8.8
2018-Sep-20 20:31N 37°50' W 122°19'0 0.0
2018-Sep-20 16:16N 37°50' W 122°19'0 0.0
2018-Sep-20 16:03N 37°50' W 122°19'0 1.7
2018-Sep-20 16:00N 37°50' W 122°19'1120.4
2018-Sep-20 15:28N 37°40' W 122°22'717.2
2018-Sep-20 15:03N 37°47' W 122°21'127.9
2018-Sep-20 15:00N 37°48' W 122°21'2 1.8
2018-Sep-20 14:04N 37°47' W 122°22'127.7
2018-Sep-20 14:00N 37°45' W 122°22'2 3.5
2018-Sep-20 13:31N 37°44' W 122°21'918.9
2018-Sep-20 13:03N 37°52' W 122°19'0 0.0
2018-Sep-20 13:00N 37°52' W 122°19'3 6.8
2018-Sep-20 12:30N 37°55' W 122°21'510.7
2018-Sep-20 12:03N 37°50' W 122°19'0 0.0
2018-Sep-20 12:00N 37°50' W 122°19'0 0.0
2018-Sep-20 11:30N 37°50' W 122°19'0 0.0
2018-Sep-20 02:15N 37°50' W 122°19'0 0.2
2018-Sep-20 02:03N 37°50' W 122°19'0 3.3
2018-Sep-20 02:00N 37°50' W 122°19'1020.3
2018-Sep-20 01:30N 37°59' W 122°25'1125.2
2018-Sep-20 01:03N 38°03' W 122°12'123.1
2018-Sep-20 01:00N 38°03' W 122°11'815.2
2018-Sep-20 00:30N 38°02' W 122°20'920.9
2018-Sep-20 00:03N 37°55' W 122°28'126.7
2018-Sep-20 00:00N 37°55' W 122°27'511.0
2018-Sep-19 23:31N 37°51' W 122°22'1123.6
2018-Sep-19 23:03N 37°40' W 122°23'0 0.0
2018-Sep-19 23:00N 37°40' W 122°23'713.3
2018-Sep-19 22:31N 37°46' W 122°21'612.2
2018-Sep-19 22:04N 37°52' W 122°20'127.2
2018-Sep-19 22:01N 37°51' W 122°21'11 7.9
2018-Sep-19 20:35N 37°40' W 122°23'0 0.0
2018-Sep-19 20:29N 37°40' W 122°23'0 0.0
2018-Sep-19 19:32N 37°40' W 122°23'0 0.0
2018-Sep-19 19:30N 37°40' W 122°23'2 4.1
2018-Sep-19 19:02N 37°38' W 122°23'0 0.0
2018-Sep-19 19:00N 37°38' W 122°23'1 2.1
2018-Sep-19 18:30N 37°39' W 122°22'1 2.3
2018-Sep-19 18:03N 37°38' W 122°23'0 0.1
2018-Sep-19 18:00N 37°38' W 122°23'0 0.0
2018-Sep-19 17:30N 37°38' W 122°23'2 1.0
2018-Sep-19 15:33N 37°40' W 122°23'0 0.0
2018-Sep-19 15:27N 37°40' W 122°23'719.2
2018-Sep-19 15:03N 37°47' W 122°22'128.8
2018-Sep-19 15:01N 37°49' W 122°21'3 2.6
2018-Sep-19 14:03N 37°46' W 122°21'4 6.5
2018-Sep-19 13:31N 37°42' W 122°21'1021.6
2018-Sep-19 13:04N 37°52' W 122°19'0 2.1
2018-Sep-19 13:00N 37°52' W 122°19'3 6.5
2018-Sep-19 12:30N 37°55' W 122°21'2 4.6
2018-Sep-19 12:04N 37°54' W 122°24'128.0
2018-Sep-19 12:01N 37°53' W 122°23'4 8.0
2018-Sep-19 11:31N 37°50' W 122°19'0 0.0
2018-Sep-19 02:23N 37°50' W 122°19'0 0.0
2018-Sep-19 02:03N 37°50' W 122°19'0 1.3
2018-Sep-19 02:00N 37°50' W 122°19'1019.6
2018-Sep-19 01:29N 37°59' W 122°25'1023.9
2018-Sep-19 01:03N 38°04' W 122°14'125.1
2018-Sep-19 01:00N 38°04' W 122°12'510.0
2018-Sep-19 00:30N 38°03' W 122°19'1124.3
2018-Sep-19 00:03N 37°55' W 122°28'118.7
2018-Sep-19 00:01N 37°55' W 122°27'611.9
2018-Sep-18 23:30N 37°51' W 122°21'1123.6
2018-Sep-18 23:02N 37°40' W 122°23'0 0.5
2018-Sep-18 23:00N 37°40' W 122°23'713.1
2018-Sep-18 22:30N 37°46' W 122°22'613.4
2018-Sep-18 22:04N 37°52' W 122°19'123.1
2018-Sep-18 22:00N 37°51' W 122°20'1215.7
2018-Sep-18 21:15N 37°40' W 122°23'417.7
2018-Sep-18 21:04N 37°43' W 122°21'124.9
2018-Sep-18 21:01N 37°44' W 122°21'612.4
2018-Sep-18 20:30N 37°50' W 122°19'0 0.0
2018-Sep-18 20:03N 37°50' W 122°19'0 0.0
2018-Sep-18 20:01N 37°50' W 122°19'0 0.0
2018-Sep-18 16:22N 37°50' W 122°19'0 0.0
2018-Sep-18 16:03N 37°50' W 122°19'0 1.4
2018-Sep-18 16:01N 37°50' W 122°19'1121.1
2018-Sep-18 15:29N 37°40' W 122°23'818.6
2018-Sep-18 15:03N 37°48' W 122°21'124.7
2018-Sep-18 15:01N 37°49' W 122°21'3 2.8
2018-Sep-18 14:03N 37°46' W 122°22'128.2
2018-Sep-18 14:01N 37°45' W 122°22'1 2.9
2018-Sep-18 13:30N 37°43' W 122°21'919.2
2018-Sep-18 13:03N 37°52' W 122°19'0 0.1
2018-Sep-18 13:00N 37°52' W 122°19'3 6.8
2018-Sep-18 12:30N 37°55' W 122°21'2 4.8
2018-Sep-18 12:03N 37°54' W 122°24'128.7
2018-Sep-18 12:00N 37°53' W 122°23'4 8.2
2018-Sep-18 11:30N 37°50' W 122°19'0 0.0
2018-Sep-18 02:11N 37°50' W 122°19'0 2.2
2018-Sep-18 02:03N 37°51' W 122°19'121.3
2018-Sep-18 02:01N 37°51' W 122°20'1019.6
2018-Sep-18 01:30N 38°00' W 122°24'1021.9
2018-Sep-18 01:03N 38°03' W 122°12'123.0
2018-Sep-18 01:00N 38°03' W 122°11'714.0
2018-Sep-18 00:30N 38°02' W 122°20'1021.5
2018-Sep-18 00:03N 37°55' W 122°28'230.0
2018-Sep-18 00:00N 37°54' W 122°26'510.0
2018-Sep-17 23:31N 37°51' W 122°22'1117.7
2018-Sep-17 22:54N 37°40' W 122°23'717.6
2018-Sep-17 22:31N 37°47' W 122°22'612.4
2018-Sep-17 22:03N 37°52' W 122°19'125.4
2018-Sep-17 22:01N 37°51' W 122°21'1222.5
2018-Sep-17 21:30N 37°40' W 122°23'4 9.3
2018-Sep-17 21:04N 37°44' W 122°21'125.5
2018-Sep-17 21:01N 37°45' W 122°22'611.6
2018-Sep-17 20:30N 37°50' W 122°19'0 0.0
2018-Sep-17 20:03N 37°50' W 122°19'0 0.0
2018-Sep-17 20:00N 37°50' W 122°19'0 0.0
2018-Sep-17 18:11N 37°50' W 122°19'0 0.0
2018-Sep-17 18:03N 37°50' W 122°19'0 0.1
2018-Sep-17 18:00N 37°50' W 122°19'0 0.0
2018-Sep-17 17:30N 37°50' W 122°19'1 2.0
2018-Sep-17 17:04N 37°50' W 122°20'230.0
2018-Sep-17 17:00N 37°49' W 122°21'918.2
2018-Sep-17 16:30N 37°40' W 122°22'1125.7
2018-Sep-17 16:04N 37°51' W 122°21'125.3
2018-Sep-17 16:00N 37°52' W 122°19'3 6.6
2018-Sep-17 15:31N 37°55' W 122°22'2 5.5
2018-Sep-17 15:04N 37°53' W 122°24'229.2
2018-Sep-17 15:00N 37°51' W 122°23'1122.2
2018-Sep-17 14:30N 37°40' W 122°23'1121.7
2018-Sep-17 14:00N 37°50' W 122°24'816.2
2018-Sep-17 13:30N 37°58' W 122°26'1124.7
2018-Sep-17 13:03N 38°04' W 122°14'126.4
2018-Sep-17 13:00N 38°04' W 122°12'4 8.1
2018-Sep-17 12:30N 38°03' W 122°17'1124.5
2018-Sep-17 12:04N 37°54' W 122°24'129.6
2018-Sep-17 12:01N 37°52' W 122°23'4 7.6
2018-Sep-17 11:30N 37°50' W 122°19'  
2018-Sep-15 02:22N 37°50' W 122°19'2 7.1
2018-Sep-15 02:04N 37°51' W 122°21'122.8
2018-Sep-15 02:00N 37°51' W 122°23'1121.9
2018-Sep-15 01:30N 38°03' W 122°20'812.1
2018-Sep-15 00:48N 38°03' W 122°09'827.3
2018-Sep-15 00:31N 38°02' W 122°20'1022.4
2018-Sep-15 00:03N 37°55' W 122°28'126.2
2018-Sep-15 00:00N 37°54' W 122°27'510.8
2018-Sep-14 23:31N 37°51' W 122°22'1124.4
2018-Sep-14 23:03N 37°40' W 122°23'0 1.6
2018-Sep-14 23:00N 37°40' W 122°23'714.0
2018-Sep-14 22:31N 37°47' W 122°22'511.8
2018-Sep-14 22:03N 37°52' W 122°20'128.7
2018-Sep-14 22:01N 37°51' W 122°21'1122.4
2018-Sep-14 21:30N 37°40' W 122°23'1 2.6
2018-Sep-14 21:03N 37°41' W 122°22'127.8
2018-Sep-14 21:01N 37°42' W 122°21'917.1
2018-Sep-14 20:30N 37°50' W 122°19'0 0.0
2018-Sep-14 20:03N 37°50' W 122°19'0 0.1
2018-Sep-14 16:05N 37°51' W 122°19'019.2
2018-Sep-14 16:04N 37°51' W 122°19'125.4
2018-Sep-14 16:00N 37°50' W 122°21'1020.3
2018-Sep-14 15:30N 37°40' W 122°23'919.6
2018-Sep-14 15:03N 37°49' W 122°21'117.7
2018-Sep-14 15:00N 37°49' W 122°22'3 6.4
2018-Sep-14 14:30N 37°52' W 122°19'612.1
2018-Sep-14 14:00N 37°46' W 122°21'4 9.0
2018-Sep-14 13:31N 37°42' W 122°22'1022.9
2018-Sep-14 13:03N 37°52' W 122°19'0 2.9
2018-Sep-14 13:00N 37°52' W 122°19'3 6.3
2018-Sep-14 12:30N 37°55' W 122°21'2 4.7
2018-Sep-14 12:04N 37°54' W 122°24'126.9
2018-Sep-14 12:01N 37°53' W 122°23'4 7.7
2018-Sep-14 11:30N 37°50' W 122°19'0 0.0
2018-Sep-14 02:16N 37°50' W 122°19'0 0.0
2018-Sep-14 02:03N 37°50' W 122°19'0 1.0
2018-Sep-14 02:00N 37°50' W 122°19'510.1
2018-Sep-14 01:31N 37°53' W 122°24'1123.5
2018-Sep-14 01:03N 38°03' W 122°19'328.3
2018-Sep-14 00:58N 38°04' W 122°15'2 4.6
2018-Sep-14 00:30N 38°04' W 122°13'1226.9
2018-Sep-14 00:03N 37°57' W 122°26'126.2
2018-Sep-14 00:00N 37°56' W 122°26'611.8
2018-Sep-13 23:31N 37°51' W 122°21'1123.3
2018-Sep-13 23:01N 37°40' W 122°23'0 0.1
2018-Sep-13 22:48N 37°40' W 122°23'621.2
2018-Sep-13 22:31N 37°46' W 122°22'613.8
2018-Sep-13 22:04N 37°52' W 122°19'128.2
2018-Sep-13 22:01N 37°51' W 122°21'1122.9
2018-Sep-13 21:31N 37°40' W 122°23'612.4
2018-Sep-13 21:03N 37°45' W 122°22'128.6
2018-Sep-13 21:01N 37°47' W 122°22'4 8.6
2018-Sep-13 20:30N 37°50' W 122°19'0 0.1
2018-Sep-13 16:06N 37°51' W 122°19'116.4
2018-Sep-13 16:04N 37°51' W 122°20'127.0
2018-Sep-13 16:00N 37°50' W 122°21'1018.8
2018-Sep-13 15:29N 37°40' W 122°23'920.4
2018-Sep-13 15:03N 37°48' W 122°21'125.0
2018-Sep-13 15:01N 37°49' W 122°22'4 4.2
2018-Sep-13 14:03N 37°45' W 122°21'126.8
2018-Sep-13 14:00N 37°44' W 122°21'1 2.6
2018-Sep-13 13:30N 37°43' W 122°21'920.6
2018-Sep-13 13:03N 37°52' W 122°19'0 3.2
2018-Sep-13 13:00N 37°52' W 122°19'3 6.7
2018-Sep-13 12:30N 37°55' W 122°21'2 5.0
2018-Sep-13 12:04N 37°54' W 122°24'126.7
2018-Sep-13 12:01N 37°53' W 122°23'4 7.9
2018-Sep-13 11:30N 37°50' W 122°19'0 0.0
2018-Sep-13 02:12N 37°50' W 122°19'0 1.1
2018-Sep-13 02:03N 37°50' W 122°19'0 3.4
2018-Sep-13 02:00N 37°51' W 122°19'1020.7
2018-Sep-13 01:30N 37°60' W 122°25'1022.6
2018-Sep-13 01:03N 38°04' W 122°13'117.6
2018-Sep-13 01:00N 38°03' W 122°11'611.9
2018-Sep-13 00:30N 38°02' W 122°19'1123.9
2018-Sep-13 00:04N 37°55' W 122°29'0 9.3
2018-Sep-13 00:00N 37°55' W 122°28'713.3
2018-Sep-12 23:30N 37°51' W 122°21'1125.3
2018-Sep-12 23:03N 37°40' W 122°23'0 2.0
2018-Sep-12 22:59N 37°40' W 122°23'612.3
2018-Sep-12 22:30N 37°46' W 122°22'714.6
2018-Sep-12 22:03N 37°52' W 122°19'127.8
2018-Sep-12 22:01N 37°51' W 122°21'1222.6
2018-Sep-12 21:30N 37°40' W 122°23'2 5.1
2018-Sep-12 21:03N 37°42' W 122°21'127.0
2018-Sep-12 21:01N 37°43' W 122°21'714.9
2018-Sep-12 20:30N 37°50' W 122°19'0 0.0
2018-Sep-12 20:03N 37°50' W 122°19'0 0.0
2018-Sep-12 16:59N 37°50' W 122°19'0 0.0
2018-Sep-12 16:30N 37°50' W 122°19'0 0.6
2018-Sep-12 16:03N 37°51' W 122°19'0 7.6
2018-Sep-12 16:00N 37°51' W 122°19'1122.1
2018-Sep-12 15:30N 37°40' W 122°23'919.0
2018-Sep-12 15:03N 37°48' W 122°21'126.0
2018-Sep-12 15:00N 37°50' W 122°22'3 6.3
2018-Sep-12 14:30N 37°52' W 122°19'612.7
2018-Sep-12 14:00N 37°46' W 122°21'4 7.3
2018-Sep-12 13:30N 37°42' W 122°21'1022.1
2018-Sep-12 13:03N 37°52' W 122°19'0 2.4
2018-Sep-12 13:00N 37°52' W 122°19'3 6.4
2018-Sep-12 12:30N 37°54' W 122°22'2 4.5
2018-Sep-12 12:03N 37°53' W 122°23'129.0
2018-Sep-12 12:01N 37°51' W 122°22'3 0.3
2018-Sep-12 02:30N 37°50' W 122°19'  
Track history (hours):
 
Tides and Currents Weather Stations Pressure Air Temp Water Temp Dewpoint Dewpoint Depression Visibility Wind Speed Wind Dir Waves Ship Positions

Blackbird

Owner: PropSF, LLC, Alameda, CA. More information available from US FCC via Universal Licensing System and Coast Guard Vessel Documentation Center.

Last reported at 2018-Sep-22 02:25 UTC. Time now 2018-Sep-23 04:22 UTC.
Position N 37°50' W 122°19'.

Length 17 m; draft 1 m.

Type: Passenger vessel. MMSI: 367776390.

Date/timePositionNaut miles runAvg speedWind from/ knotsBaromVisibWave heightAir tempDewpointWater temp
2018-Sep-22 02:25N 37°50' W 122°19'3 8.7
2018-Sep-22 02:04N 37°52' W 122°23'126.4
2018-Sep-22 02:01N 37°53' W 122°23'1020.8
2018-Sep-22 01:30N 38°03' W 122°20'816.3
2018-Sep-22 01:01N 38°03' W 122°09'0 0.0
2018-Sep-22 00:58N 38°03' W 122°09'818.4
2018-Sep-22 00:30N 38°02' W 122°20'1021.2
2018-Sep-22 00:04N 37°55' W 122°28'127.1
2018-Sep-22 00:00N 37°54' W 122°27'510.5
2018-Sep-21 23:31N 37°51' W 122°22'1124.3
2018-Sep-21 23:03N 37°40' W 122°22'0 3.9
2018-Sep-21 23:00N 37°40' W 122°23'714.8
2018-Sep-21 22:30N 37°47' W 122°21'510.3
2018-Sep-21 22:04N 37°52' W 122°20'127.7
2018-Sep-21 22:00N 37°51' W 122°21'1120.0
2018-Sep-21 21:27N 37°40' W 122°23'0 0.2
2018-Sep-21 21:02N 37°40' W 122°23'0 3.1
2018-Sep-21 21:00N 37°40' W 122°23'1122.3
2018-Sep-21 20:30N 37°51' W 122°19'0 0.6
2018-Sep-21 20:03N 37°50' W 122°19'0 0.0
2018-Sep-21 20:00N 37°50' W 122°19'0 0.0
2018-Sep-21 17:17N 37°50' W 122°19'0 0.0
2018-Sep-21 17:03N 37°50' W 122°19'0 0.0
2018-Sep-21 17:01N 37°50' W 122°19'0 0.0
2018-Sep-21 16:31N 37°50' W 122°19'0 0.1
2018-Sep-21 16:04N 37°50' W 122°19'0 3.1
2018-Sep-21 16:01N 37°50' W 122°19'1121.5
2018-Sep-21 15:30N 37°40' W 122°22'716.6
2018-Sep-21 15:04N 37°47' W 122°21'129.7
2018-Sep-21 15:01N 37°49' W 122°21'4 7.8
2018-Sep-21 14:30N 37°52' W 122°19'1110.9
2018-Sep-21 13:30N 37°41' W 122°22'1124.1
2018-Sep-21 13:03N 37°52' W 122°19'0 2.4
2018-Sep-21 13:01N 37°52' W 122°19'3 6.7
2018-Sep-21 12:30N 37°55' W 122°21'0 1.1
2018-Sep-21 12:03N 37°54' W 122°22'117.6
2018-Sep-21 12:00N 37°54' W 122°23'5 9.5
2018-Sep-21 11:29N 37°50' W 122°19'0 0.0
2018-Sep-21 11:03N 37°50' W 122°19'0 0.0
2018-Sep-21 02:11N 37°50' W 122°19'0 0.0
2018-Sep-21 02:03N 37°50' W 122°19'0 0.0
2018-Sep-21 02:00N 37°50' W 122°19'816.9
2018-Sep-21 01:30N 37°57' W 122°26'1124.4
2018-Sep-21 01:03N 38°04' W 122°15'130.4
2018-Sep-21 01:01N 38°04' W 122°13'4 8.4
2018-Sep-21 00:30N 38°03' W 122°19'1124.4
2018-Sep-21 00:03N 37°55' W 122°28'114.1
2018-Sep-21 00:00N 37°55' W 122°28'612.7
2018-Sep-20 23:30N 37°51' W 122°21'1124.8
2018-Sep-20 23:03N 37°40' W 122°22'0 4.4
2018-Sep-20 23:01N 37°40' W 122°23'611.9
2018-Sep-20 22:31N 37°46' W 122°21'614.2
2018-Sep-20 22:04N 37°52' W 122°19'126.7
2018-Sep-20 22:01N 37°51' W 122°21'1221.2
2018-Sep-20 21:28N 37°40' W 122°23'513.3
2018-Sep-20 21:04N 37°45' W 122°21'128.7
2018-Sep-20 21:01N 37°46' W 122°21'4 8.8
2018-Sep-20 20:31N 37°50' W 122°19'0 0.0
2018-Sep-20 16:16N 37°50' W 122°19'0 0.0
2018-Sep-20 16:03N 37°50' W 122°19'0 1.7
2018-Sep-20 16:00N 37°50' W 122°19'1120.4
2018-Sep-20 15:28N 37°40' W 122°22'717.2
2018-Sep-20 15:03N 37°47' W 122°21'127.9
2018-Sep-20 15:00N 37°48' W 122°21'2 1.8
2018-Sep-20 14:04N 37°47' W 122°22'127.7
2018-Sep-20 14:00N 37°45' W 122°22'2 3.5
2018-Sep-20 13:31N 37°44' W 122°21'918.9
2018-Sep-20 13:03N 37°52' W 122°19'0 0.0
2018-Sep-20 13:00N 37°52' W 122°19'3 6.8
2018-Sep-20 12:30N 37°55' W 122°21'510.7
2018-Sep-20 12:03N 37°50' W 122°19'0 0.0
2018-Sep-20 12:00N 37°50' W 122°19'0 0.0
2018-Sep-20 11:30N 37°50' W 122°19'0 0.0
2018-Sep-20 02:15N 37°50' W 122°19'0 0.2
2018-Sep-20 02:03N 37°50' W 122°19'0 3.3
2018-Sep-20 02:00N 37°50' W 122°19'1020.3
2018-Sep-20 01:30N 37°59' W 122°25'1125.2
2018-Sep-20 01:03N 38°03' W 122°12'123.1
2018-Sep-20 01:00N 38°03' W 122°11'815.2
2018-Sep-20 00:30N 38°02' W 122°20'920.9
2018-Sep-20 00:03N 37°55' W 122°28'126.7
2018-Sep-20 00:00N 37°55' W 122°27'511.0
2018-Sep-19 23:31N 37°51' W 122°22'1123.6
2018-Sep-19 23:03N 37°40' W 122°23'0 0.0
2018-Sep-19 23:00N 37°40' W 122°23'713.3
2018-Sep-19 22:31N 37°46' W 122°21'612.2
2018-Sep-19 22:04N 37°52' W 122°20'127.2
2018-Sep-19 22:01N 37°51' W 122°21'11 7.9
2018-Sep-19 20:35N 37°40' W 122°23'0 0.0
2018-Sep-19 20:29N 37°40' W 122°23'0 0.0
2018-Sep-19 19:32N 37°40' W 122°23'0 0.0
2018-Sep-19 19:30N 37°40' W 122°23'2 4.1
2018-Sep-19 19:02N 37°38' W 122°23'0 0.0
2018-Sep-19 19:00N 37°38' W 122°23'1 2.1
2018-Sep-19 18:30N 37°39' W 122°22'1 2.3
2018-Sep-19 18:03N 37°38' W 122°23'0 0.1
2018-Sep-19 18:00N 37°38' W 122°23'0 0.0
2018-Sep-19 17:30N 37°38' W 122°23'2 1.0
2018-Sep-19 15:33N 37°40' W 122°23'0 0.0
2018-Sep-19 15:27N 37°40' W 122°23'719.2
2018-Sep-19 15:03N 37°47' W 122°22'128.8
2018-Sep-19 15:01N 37°49' W 122°21'3 2.6
2018-Sep-19 14:03N 37°46' W 122°21'4 6.5
2018-Sep-19 13:31N 37°42' W 122°21'1021.6
2018-Sep-19 13:04N 37°52' W 122°19'0 2.1
2018-Sep-19 13:00N 37°52' W 122°19'3 6.5
2018-Sep-19 12:30N 37°55' W 122°21'2 4.6
2018-Sep-19 12:04N 37°54' W 122°24'128.0
2018-Sep-19 12:01N 37°53' W 122°23'4 8.0
2018-Sep-19 11:31N 37°50' W 122°19'0 0.0
2018-Sep-19 02:23N 37°50' W 122°19'0 0.0
2018-Sep-19 02:03N 37°50' W 122°19'0 1.3
2018-Sep-19 02:00N 37°50' W 122°19'1019.6
2018-Sep-19 01:29N 37°59' W 122°25'1023.9
2018-Sep-19 01:03N 38°04' W 122°14'125.1
2018-Sep-19 01:00N 38°04' W 122°12'510.0
2018-Sep-19 00:30N 38°03' W 122°19'1124.3
2018-Sep-19 00:03N 37°55' W 122°28'118.7
2018-Sep-19 00:01N 37°55' W 122°27'611.9
2018-Sep-18 23:30N 37°51' W 122°21'1123.6
2018-Sep-18 23:02N 37°40' W 122°23'0 0.5
2018-Sep-18 23:00N 37°40' W 122°23'713.1
2018-Sep-18 22:30N 37°46' W 122°22'613.4
2018-Sep-18 22:04N 37°52' W 122°19'123.1
2018-Sep-18 22:00N 37°51' W 122°20'1215.7
2018-Sep-18 21:15N 37°40' W 122°23'417.7
2018-Sep-18 21:04N 37°43' W 122°21'124.9
2018-Sep-18 21:01N 37°44' W 122°21'612.4
2018-Sep-18 20:30N 37°50' W 122°19'0 0.0
2018-Sep-18 20:03N 37°50' W 122°19'0 0.0
2018-Sep-18 20:01N 37°50' W 122°19'0 0.0
2018-Sep-18 16:22N 37°50' W 122°19'0 0.0
2018-Sep-18 16:03N 37°50' W 122°19'0 1.4
2018-Sep-18 16:01N 37°50' W 122°19'1121.1
2018-Sep-18 15:29N 37°40' W 122°23'818.6
2018-Sep-18 15:03N 37°48' W 122°21'124.7
2018-Sep-18 15:01N 37°49' W 122°21'3 2.8
2018-Sep-18 14:03N 37°46' W 122°22'128.2
2018-Sep-18 14:01N 37°45' W 122°22'1 2.9
2018-Sep-18 13:30N 37°43' W 122°21'919.2
2018-Sep-18 13:03N 37°52' W 122°19'0 0.1
2018-Sep-18 13:00N 37°52' W 122°19'3 6.8
2018-Sep-18 12:30N 37°55' W 122°21'2 4.8
2018-Sep-18 12:03N 37°54' W 122°24'128.7
2018-Sep-18 12:00N 37°53' W 122°23'4 8.2
2018-Sep-18 11:30N 37°50' W 122°19'0 0.0
2018-Sep-18 02:11N 37°50' W 122°19'0 2.2
2018-Sep-18 02:03N 37°51' W 122°19'121.3
2018-Sep-18 02:01N 37°51' W 122°20'1019.6
2018-Sep-18 01:30N 38°00' W 122°24'1021.9
2018-Sep-18 01:03N 38°03' W 122°12'123.0
2018-Sep-18 01:00N 38°03' W 122°11'714.0
2018-Sep-18 00:30N 38°02' W 122°20'1021.5
2018-Sep-18 00:03N 37°55' W 122°28'230.0
2018-Sep-18 00:00N 37°54' W 122°26'510.0
2018-Sep-17 23:31N 37°51' W 122°22'1117.7
2018-Sep-17 22:54N 37°40' W 122°23'717.6
2018-Sep-17 22:31N 37°47' W 122°22'612.4
2018-Sep-17 22:03N 37°52' W 122°19'125.4
2018-Sep-17 22:01N 37°51' W 122°21'1222.5
2018-Sep-17 21:30N 37°40' W 122°23'4 9.3
2018-Sep-17 21:04N 37°44' W 122°21'125.5
2018-Sep-17 21:01N 37°45' W 122°22'611.6
2018-Sep-17 20:30N 37°50' W 122°19'0 0.0
2018-Sep-17 20:03N 37°50' W 122°19'0 0.0
2018-Sep-17 20:00N 37°50' W 122°19'0 0.0
2018-Sep-17 18:11N 37°50' W 122°19'0 0.0
2018-Sep-17 18:03N 37°50' W 122°19'0 0.1
2018-Sep-17 18:00N 37°50' W 122°19'0 0.0
2018-Sep-17 17:30N 37°50' W 122°19'1 2.0
2018-Sep-17 17:04N 37°50' W 122°20'230.0
2018-Sep-17 17:00N 37°49' W 122°21'918.2
2018-Sep-17 16:30N 37°40' W 122°22'1125.7
2018-Sep-17 16:04N 37°51' W 122°21'125.3
2018-Sep-17 16:00N 37°52' W 122°19'3 6.6
2018-Sep-17 15:31N 37°55' W 122°22'2 5.5
2018-Sep-17 15:04N 37°53' W 122°24'229.2
2018-Sep-17 15:00N 37°51' W 122°23'1122.2
2018-Sep-17 14:30N 37°40' W 122°23'1121.7
2018-Sep-17 14:00N 37°50' W 122°24'816.2
2018-Sep-17 13:30N 37°58' W 122°26'1124.7
2018-Sep-17 13:03N 38°04' W 122°14'126.4
2018-Sep-17 13:00N 38°04' W 122°12'4 8.1
2018-Sep-17 12:30N 38°03' W 122°17'1124.5
2018-Sep-17 12:04N 37°54' W 122°24'129.6
2018-Sep-17 12:01N 37°52' W 122°23'4 7.6
2018-Sep-17 11:30N 37°50' W 122°19'  
2018-Sep-15 02:22N 37°50' W 122°19'2 7.1
2018-Sep-15 02:04N 37°51' W 122°21'122.8
2018-Sep-15 02:00N 37°51' W 122°23'1121.9
2018-Sep-15 01:30N 38°03' W 122°20'812.1
2018-Sep-15 00:48N 38°03' W 122°09'827.3
2018-Sep-15 00:31N 38°02' W 122°20'1022.4
2018-Sep-15 00:03N 37°55' W 122°28'126.2
2018-Sep-15 00:00N 37°54' W 122°27'510.8
2018-Sep-14 23:31N 37°51' W 122°22'1124.4
2018-Sep-14 23:03N 37°40' W 122°23'0 1.6
2018-Sep-14 23:00N 37°40' W 122°23'714.0
2018-Sep-14 22:31N 37°47' W 122°22'511.8
2018-Sep-14 22:03N 37°52' W 122°20'128.7
2018-Sep-14 22:01N 37°51' W 122°21'1122.4
2018-Sep-14 21:30N 37°40' W 122°23'1 2.6
2018-Sep-14 21:03N 37°41' W 122°22'127.8
2018-Sep-14 21:01N 37°42' W 122°21'917.1
2018-Sep-14 20:30N 37°50' W 122°19'0 0.0
2018-Sep-14 20:03N 37°50' W 122°19'0 0.1
2018-Sep-14 16:05N 37°51' W 122°19'019.2
2018-Sep-14 16:04N 37°51' W 122°19'125.4
2018-Sep-14 16:00N 37°50' W 122°21'1020.3
2018-Sep-14 15:30N 37°40' W 122°23'919.6
2018-Sep-14 15:03N 37°49' W 122°21'117.7
2018-Sep-14 15:00N 37°49' W 122°22'3 6.4
2018-Sep-14 14:30N 37°52' W 122°19'612.1
2018-Sep-14 14:00N 37°46' W 122°21'4 9.0
2018-Sep-14 13:31N 37°42' W 122°22'1022.9
2018-Sep-14 13:03N 37°52' W 122°19'0 2.9
2018-Sep-14 13:00N 37°52' W 122°19'3 6.3
2018-Sep-14 12:30N 37°55' W 122°21'2 4.7
2018-Sep-14 12:04N 37°54' W 122°24'126.9
2018-Sep-14 12:01N 37°53' W 122°23'4 7.7
2018-Sep-14 11:30N 37°50' W 122°19'0 0.0
2018-Sep-14 02:16N 37°50' W 122°19'0 0.0
2018-Sep-14 02:03N 37°50' W 122°19'0 1.0
2018-Sep-14 02:00N 37°50' W 122°19'510.1
2018-Sep-14 01:31N 37°53' W 122°24'1123.5
2018-Sep-14 01:03N 38°03' W 122°19'328.3
2018-Sep-14 00:58N 38°04' W 122°15'2 4.6
2018-Sep-14 00:30N 38°04' W 122°13'1226.9
2018-Sep-14 00:03N 37°57' W 122°26'126.2
2018-Sep-14 00:00N 37°56' W 122°26'611.8
2018-Sep-13 23:31N 37°51' W 122°21'1123.3
2018-Sep-13 23:01N 37°40' W 122°23'0 0.1
2018-Sep-13 22:48N 37°40' W 122°23'621.2
2018-Sep-13 22:31N 37°46' W 122°22'613.8
2018-Sep-13 22:04N 37°52' W 122°19'128.2
2018-Sep-13 22:01N 37°51' W 122°21'1122.9
2018-Sep-13 21:31N 37°40' W 122°23'612.4
2018-Sep-13 21:03N 37°45' W 122°22'128.6
2018-Sep-13 21:01N 37°47' W 122°22'4 8.6
2018-Sep-13 20:30N 37°50' W 122°19'0 0.1
2018-Sep-13 16:06N 37°51' W 122°19'116.4
2018-Sep-13 16:04N 37°51' W 122°20'127.0
2018-Sep-13 16:00N 37°50' W 122°21'1018.8
2018-Sep-13 15:29N 37°40' W 122°23'920.4
2018-Sep-13 15:03N 37°48' W 122°21'125.0
2018-Sep-13 15:01N 37°49' W 122°22'4 4.2
2018-Sep-13 14:03N 37°45' W 122°21'126.8
2018-Sep-13 14:00N 37°44' W 122°21'1 2.6
2018-Sep-13 13:30N 37°43' W 122°21'920.6
2018-Sep-13 13:03N 37°52' W 122°19'0 3.2
2018-Sep-13 13:00N 37°52' W 122°19'3 6.7
2018-Sep-13 12:30N 37°55' W 122°21'2 5.0
2018-Sep-13 12:04N 37°54' W 122°24'126.7
2018-Sep-13 12:01N 37°53' W 122°23'4 7.9
2018-Sep-13 11:30N 37°50' W 122°19'0 0.0
2018-Sep-13 02:12N 37°50' W 122°19'0 1.1
2018-Sep-13 02:03N 37°50' W 122°19'0 3.4
2018-Sep-13 02:00N 37°51' W 122°19'1020.7
2018-Sep-13 01:30N 37°60' W 122°25'1022.6
2018-Sep-13 01:03N 38°04' W 122°13'117.6
2018-Sep-13 01:00N 38°03' W 122°11'611.9
2018-Sep-13 00:30N 38°02' W 122°19'1123.9
2018-Sep-13 00:04N 37°55' W 122°29'0 9.3
2018-Sep-13 00:00N 37°55' W 122°28'713.3
2018-Sep-12 23:30N 37°51' W 122°21'1125.3
2018-Sep-12 23:03N 37°40' W 122°23'0 2.0
2018-Sep-12 22:59N 37°40' W 122°23'612.3
2018-Sep-12 22:30N 37°46' W 122°22'714.6
2018-Sep-12 22:03N 37°52' W 122°19'127.8
2018-Sep-12 22:01N 37°51' W 122°21'1222.6
2018-Sep-12 21:30N 37°40' W 122°23'2 5.1
2018-Sep-12 21:03N 37°42' W 122°21'127.0
2018-Sep-12 21:01N 37°43' W 122°21'714.9
2018-Sep-12 20:30N 37°50' W 122°19'0 0.0
2018-Sep-12 20:03N 37°50' W 122°19'0 0.0
2018-Sep-12 16:59N 37°50' W 122°19'0 0.0
2018-Sep-12 16:30N 37°50' W 122°19'0 0.6
2018-Sep-12 16:03N 37°51' W 122°19'0 7.6
2018-Sep-12 16:00N 37°51' W 122°19'1122.1
2018-Sep-12 15:30N 37°40' W 122°23'919.0
2018-Sep-12 15:03N 37°48' W 122°21'126.0
2018-Sep-12 15:00N 37°50' W 122°22'3 6.3
2018-Sep-12 14:30N 37°52' W 122°19'612.7
2018-Sep-12 14:00N 37°46' W 122°21'4 7.3
2018-Sep-12 13:30N 37°42' W 122°21'1022.1
2018-Sep-12 13:03N 37°52' W 122°19'0 2.4
2018-Sep-12 13:00N 37°52' W 122°19'3 6.4
2018-Sep-12 12:30N 37°54' W 122°22'2 4.5
2018-Sep-12 12:03N 37°53' W 122°23'129.0
2018-Sep-12 12:01N 37°51' W 122°22'3 0.3
2018-Sep-12 02:30N 37°50' W 122°19'  

Dump ship's entire track history